Time;durP1;ratioP1;P1;durP2;ratioP2;P2;SDS_P1;SDS_P2;PMS_P1;PMS_P2;Temp;Humidity;BMP_temperature;BMP_pressure;BME280_temperature;BME280_humidity;BME280_pressure;Samples;Min_cycle;Max_cycle;Signal;HPM_P1;HPM_P2
2023/06/02 00:01:00;;;;;;;1999.90;907.00;;;11.50;99.90;;;;;;5031398;28;20053;-81
2023/06/02 00:03:30;;;;;;;1999.90;691.55;;;11.50;99.90;;;;;;5010313;28;21559;-79
2023/06/02 00:05:59;;;;;;;1999.90;513.13;;;11.40;99.90;;;;;;5032119;28;20050;-88
2023/06/02 00:08:25;;;;;;;1999.90;653.03;;;11.40;99.90;;;;;;5028645;28;20112;-79
2023/06/02 00:10:51;;;;;;;1999.90;815.03;;;11.40;99.90;;;;;;5011809;28;20104;-79
2023/06/02 00:13:17;;;;;;;1999.90;871.92;;;11.40;99.90;;;;;;5029331;28;20045;-79
2023/06/02 00:15:43;;;;;;;1999.90;817.17;;;11.40;99.90;;;;;;5009831;28;20079;-78
2023/06/02 00:18:09;;;;;;;1999.90;999.90;;;11.40;99.90;;;;;;5031925;28;20450;-86
2023/06/02 00:20:34;;;;;;;1999.90;787.50;;;11.40;99.90;;;;;;5028952;28;20065;-78
2023/06/02 00:23:01;;;;;;;1999.90;982.00;;;11.40;99.90;;;;;;5029153;28;20053;-80
2023/06/02 00:25:28;;;;;;;1999.90;999.90;;;11.50;99.90;;;;;;5007327;28;20098;-79
2023/06/02 00:27:54;;;;;;;1999.90;971.10;;;11.40;99.90;;;;;;5026815;28;20049;-79
2023/06/02 00:30:19;;;;;;;1999.90;887.25;;;11.40;99.90;;;;;;5009814;28;20052;-79
2023/06/02 00:32:45;;;;;;;1999.90;860.40;;;11.40;99.90;;;;;;5029749;28;20401;-79
2023/06/02 00:35:11;;;;;;;1999.90;999.90;;;11.40;99.90;;;;;;5009612;28;20102;-83
2023/06/02 00:37:36;;;;;;;1999.90;678.92;;;11.40;99.90;;;;;;5014445;28;20115;-79
2023/06/02 00:40:03;;;;;;;1999.90;776.20;;;11.40;99.90;;;;;;5009472;28;20037;-79
2023/06/02 00:42:29;;;;;;;1999.90;980.28;;;11.40;99.90;;;;;;5029078;28;20049;-81
2023/06/02 00:44:55;;;;;;;1999.90;729.50;;;11.40;99.90;;;;;;4994121;28;20111;-80
2023/06/02 00:47:21;;;;;;;1999.90;999.90;;;11.40;99.90;;;;;;5010919;28;20087;-78
2023/06/02 00:49:46;;;;;;;1999.90;999.17;;;11.40;99.90;;;;;;5011761;28;20033;-79
2023/06/02 00:52:15;;;;;;;1999.90;799.08;;;11.40;99.90;;;;;;5011242;28;20555;-79
2023/06/02 00:54:41;;;;;;;1999.90;999.90;;;11.40;99.90;;;;;;5028027;28;20163;-80
2023/06/02 00:57:07;;;;;;;1999.90;999.90;;;11.40;99.90;;;;;;5000091;28;20587;-79
2023/06/02 00:59:33;;;;;;;1999.90;994.95;;;11.30;99.90;;;;;;5010541;28;20132;-80
2023/06/02 01:02:00;;;;;;;1999.90;999.90;;;11.30;99.90;;;;;;5028344;28;20117;-79
2023/06/02 01:04:26;;;;;;;1999.90;940.58;;;11.30;99.90;;;;;;5015160;28;20050;-79
2023/06/02 01:06:53;;;;;;;1999.90;999.90;;;11.20;99.90;;;;;;5014948;28;20037;-79
2023/06/02 01:09:20;;;;;;;1999.90;999.90;;;11.20;99.90;;;;;;5034149;28;20045;-82
2023/06/02 01:11:49;;;;;;;1999.90;814.25;;;11.20;99.90;;;;;;5029898;28;20124;-78
2023/06/02 01:14:15;;;;;;;1999.90;966.50;;;11.20;99.90;;;;;;5034454;28;20103;-80
2023/06/02 01:16:44;;;;;;;1999.90;848.42;;;11.20;99.90;;;;;;5032124;28;20056;-79
2023/06/02 01:19:13;;;;;;;1999.90;886.63;;;11.20;99.90;;;;;;5014309;28;20124;-83
2023/06/02 01:21:40;;;;;;;1999.90;779.80;;;11.10;99.90;;;;;;5030926;28;20076;-84
2023/06/02 01:24:06;;;;;;;1999.90;738.53;;;11.30;99.90;;;;;;4997935;28;20049;-81
2023/06/02 01:26:34;;;;;;;1999.90;870.22;;;11.10;99.90;;;;;;5028144;28;20072;-78
2023/06/02 01:29:04;;;;;;;1999.90;999.90;;;11.10;99.90;;;;;;5014999;28;20398;-78
2023/06/02 01:31:38;;;;;;;1999.90;856.88;;;11.10;99.90;;;;;;5029133;28;20049;-78
2023/06/02 01:34:27;;;;;;;1999.90;785.10;;;11.10;99.90;;;;;;5015651;28;20552;-80
2023/06/02 01:36:57;;;;;;;1999.90;999.90;;;11.10;99.90;;;;;;5028233;28;20465;-78
2023/06/02 01:39:24;;;;;;;1999.90;999.90;;;11.10;99.90;;;;;;5008968;28;20132;-79
2023/06/02 01:41:51;;;;;;;1999.90;999.90;;;11.10;99.90;;;;;;5033467;28;20084;-78
2023/06/02 01:44:18;;;;;;;1999.90;999.90;;;11.10;99.90;;;;;;5012807;28;20056;-78
2023/06/02 01:46:45;;;;;;;1999.90;999.90;;;11.10;99.90;;;;;;5026313;28;20097;-78
2023/06/02 01:49:15;;;;;;;1999.90;839.07;;;11.00;99.90;;;;;;5029280;28;20100;-79
2023/06/02 01:51:41;;;;;;;1999.90;647.38;;;10.90;99.90;;;;;;5013783;28;20132;-78
2023/06/02 01:54:07;;;;;;;1999.90;872.42;;;10.90;99.90;;;;;;5015951;28;20085;-78
2023/06/02 01:56:33;;;;;;;1999.90;693.53;;;10.80;99.90;;;;;;5020021;28;20108;-78
2023/06/02 01:58:58;;;;;;;1999.90;860.40;;;10.70;99.90;;;;;;5031880;28;20049;-79
2023/06/02 02:01:27;;;;;;;1999.90;816.97;;;10.70;99.90;;;;;;4997235;28;20120;-85
2023/06/02 02:03:53;;;;;;;1999.90;810.13;;;10.70;99.90;;;;;;5025791;28;20505;-78
2023/06/02 02:06:34;;;;;;;1999.90;760.83;;;10.70;99.90;;;;;;4997666;28;20498;-80
2023/06/02 02:09:00;;;;;;;1999.90;550.28;;;10.80;99.90;;;;;;5013613;28;20091;-78
2023/06/02 02:11:27;;;;;;;1999.90;988.45;;;10.70;99.90;;;;;;5029533;28;20041;-79
2023/06/02 02:13:54;;;;;;;1999.90;850.78;;;10.70;99.90;;;;;;5033597;28;20057;-78
2023/06/02 02:16:21;;;;;;;1999.90;897.33;;;10.70;99.90;;;;;;5009495;28;20050;-79
2023/06/02 02:18:47;;;;;;;1999.90;788.67;;;10.70;99.90;;;;;;5012492;28;20362;-79
2023/06/02 02:21:13;;;;;;;1999.90;670.90;;;10.70;99.90;;;;;;5027809;28;20079;-79
2023/06/02 02:23:39;;;;;;;1999.90;668.35;;;10.70;99.90;;;;;;5015924;28;20368;-79
2023/06/02 02:26:06;;;;;;;1999.90;704.75;;;10.70;99.90;;;;;;5029618;28;20068;-78
2023/06/02 02:28:32;;;;;;;1999.90;898.13;;;10.70;99.90;;;;;;5023481;28;20479;-78
2023/06/02 02:30:57;;;;;;;1999.90;999.90;;;10.90;99.90;;;;;;5010186;28;20049;-79
2023/06/02 02:33:23;;;;;;;1999.90;708.83;;;10.80;99.90;;;;;;5031626;28;20053;-79
2023/06/02 02:35:49;;;;;;;1999.90;882.50;;;10.80;99.90;;;;;;5014721;28;20042;-83
2023/06/02 02:38:15;;;;;;;1999.90;863.15;;;10.80;99.90;;;;;;5030131;28;20048;-80
2023/06/02 02:40:41;;;;;;;1999.90;776.97;;;10.90;99.90;;;;;;5028314;28;20060;-79
2023/06/02 02:43:06;;;;;;;1999.90;645.53;;;10.90;99.90;;;;;;5032896;28;20049;-80
2023/06/02 02:45:32;;;;;;;1999.90;952.05;;;10.90;99.90;;;;;;5030924;28;20046;-78
2023/06/02 02:47:58;;;;;;;1999.90;806.85;;;10.90;99.90;;;;;;4996396;28;20049;-84
2023/06/02 02:50:23;;;;;;;1999.90;602.50;;;10.90;99.90;;;;;;5009026;28;20049;-78
2023/06/02 02:52:49;;;;;;;1999.90;786.30;;;10.90;99.90;;;;;;5032191;28;20073;-79
2023/06/02 02:55:15;;;;;;;1999.90;774.38;;;11.00;99.90;;;;;;5030199;28;20103;-82
2023/06/02 02:57:41;;;;;;;1999.90;761.45;;;10.90;99.90;;;;;;5028033;28;20068;-84
2023/06/02 03:00:09;;;;;;;1999.90;774.28;;;11.00;99.90;;;;;;5009643;28;20060;-79
2023/06/02 03:02:35;;;;;;;;;;;11.00;99.90;;;;;;5034226;28;20544;-79
2023/06/02 03:05:02;;;;;;;1999.90;999.90;;;11.00;99.90;;;;;;5023065;28;20004;-79
2023/06/02 03:07:29;;;;;;;1999.90;685.00;;;11.00;99.90;;;;;;5028187;28;20069;-79
2023/06/02 03:09:55;;;;;;;1999.90;687.75;;;11.00;99.90;;;;;;5005771;28;20056;-79
2023/06/02 03:12:21;;;;;;;1999.90;765.90;;;11.00;99.90;;;;;;5031481;28;20049;-80
2023/06/02 03:14:46;;;;;;;1999.90;888.92;;;11.00;99.90;;;;;;5032574;28;20504;-80
2023/06/02 03:17:13;;;;;;;1999.90;737.08;;;11.00;99.90;;;;;;5029536;28;20479;-79
2023/06/02 03:19:39;;;;;;;1999.90;768.13;;;11.00;99.90;;;;;;5013005;28;20341;-78
2023/06/02 03:22:06;;;;;;;1999.90;568.72;;;11.00;99.90;;;;;;5031138;28;20129;-80
2023/06/02 03:24:32;;;;;;;1999.90;540.45;;;11.00;99.90;;;;;;5024761;28;20406;-79
2023/06/02 03:26:58;;;;;;;1999.90;579.72;;;11.00;99.90;;;;;;5028215;28;20045;-85
2023/06/02 03:29:23;;;;;;;1999.90;784.00;;;11.10;99.90;;;;;;5018786;28;20041;-78
2023/06/02 03:31:52;;;;;;;1999.90;558.10;;;11.10;99.90;;;;;;5029848;28;20417;-79
2023/06/02 03:34:18;;;;;;;1999.90;666.53;;;11.20;99.90;;;;;;5029072;28;20073;-88
2023/06/02 03:36:44;;;;;;;1999.90;999.90;;;11.10;99.90;;;;;;5031496;28;20045;-80
2023/06/02 03:39:10;;;;;;;1999.90;565.72;;;11.10;99.90;;;;;;5029639;28;20068;-79
2023/06/02 03:41:36;;;;;;;1999.90;540.03;;;11.10;99.90;;;;;;5009057;28;20114;-79
2023/06/02 03:44:03;;;;;;;1999.90;695.70;;;11.10;99.90;;;;;;5029457;28;20118;-79
2023/06/02 03:46:29;;;;;;;1999.90;712.17;;;11.20;99.90;;;;;;5031478;28;20052;-79
2023/06/02 03:48:55;;;;;;;1999.90;860.75;;;11.20;99.90;;;;;;4995782;28;20041;-80
2023/06/02 03:51:21;;;;;;;1999.90;825.05;;;11.20;99.90;;;;;;5029557;28;20041;-79
2023/06/02 03:53:49;;;;;;;1999.90;588.92;;;11.20;99.90;;;;;;5028952;28;20068;-85
2023/06/02 03:56:15;;;;;;;1999.90;584.30;;;11.20;99.90;;;;;;5011113;28;20057;-78
2023/06/02 03:58:40;;;;;;;1999.90;658.90;;;11.20;99.90;;;;;;5032355;28;20061;-79
2023/06/02 04:01:06;;;;;;;1999.90;600.67;;;11.20;99.90;;;;;;5010362;28;20049;-85
2023/06/02 04:03:36;;;;;;;1999.90;714.70;;;;;;;;;;5028734;28;20045;-81
2023/06/02 04:06:05;;;;;;;1999.90;655.83;;;11.20;99.90;;;;;;5037967;28;20180;-80
2023/06/02 04:08:32;;;;;;;1999.90;806.22;;;11.20;99.90;;;;;;5032215;28;20075;-81
2023/06/02 04:10:58;;;;;;;1999.90;766.38;;;11.30;99.90;;;;;;4995895;28;20376;-79
2023/06/02 04:13:24;;;;;;;1999.90;770.97;;;11.30;99.90;;;;;;5028256;28;20115;-80
2023/06/02 04:15:50;;;;;;;1999.90;653.00;;;11.30;99.90;;;;;;5030000;28;20068;-79
2023/06/02 04:18:16;;;;;;;1999.90;729.33;;;11.40;99.90;;;;;;5027500;28;20042;-79
2023/06/02 04:20:41;;;;;;;1999.90;604.15;;;11.40;99.90;;;;;;5030589;28;20366;-79
2023/06/02 04:23:07;;;;;;;1999.90;574.17;;;11.40;99.90;;;;;;5029439;28;20049;-80
2023/06/02 04:25:33;;;;;;;1999.90;692.00;;;11.40;99.90;;;;;;5029192;28;20710;-79
2023/06/02 04:27:58;;;;;;;1999.90;789.95;;;11.40;99.90;;;;;;5003216;28;20042;-79
2023/06/02 04:30:24;;;;;;;1999.90;759.63;;;11.50;99.90;;;;;;5019804;28;20041;-80
2023/06/02 04:32:50;;;;;;;1999.90;578.53;;;11.40;99.90;;;;;;5030531;28;20041;-79
2023/06/02 04:35:16;;;;;;;1999.90;721.08;;;11.50;99.90;;;;;;5023716;28;20119;-83
2023/06/02 04:37:44;;;;;;;1999.90;508.02;;;11.50;99.90;;;;;;5021914;28;20088;-81
2023/06/02 04:40:10;;;;;;;;;;;11.50;99.90;;;;;;5028417;28;20046;-80
2023/06/02 04:42:38;;;;;;;1999.90;723.83;;;11.50;99.90;;;;;;5033392;28;20007;-79
2023/06/02 04:45:12;;;;;;;1999.90;522.33;;;11.60;99.90;;;;;;5029737;28;20060;-80
2023/06/02 04:47:40;;;;;;;1999.90;520.92;;;11.60;99.90;;;;;;5035138;28;20053;-80
2023/06/02 04:50:09;;;;;;;1999.90;546.15;;;11.60;99.90;;;;;;5019893;28;20046;-80
2023/06/02 04:52:38;;;;;;;1999.90;533.42;;;11.60;99.90;;;;;;5017110;28;20482;-79
2023/06/02 04:55:07;;;;;;;1999.90;541.80;;;11.70;99.90;;;;;;5012377;28;20668;-81
2023/06/02 04:57:33;;;;;;;1999.90;394.27;;;11.70;99.90;;;;;;5030297;28;20083;-79
2023/06/02 04:59:58;;;;;;;1999.90;493.38;;;11.80;99.90;;;;;;5017456;28;20104;-80
2023/06/02 05:02:24;;;;;;;1999.90;473.08;;;11.80;99.90;;;;;;5017263;28;20041;-79
2023/06/02 05:04:50;;;;;;;1928.30;328.70;;;11.80;99.90;;;;;;5032344;28;20072;-81
2023/06/02 05:07:16;;;;;;;1795.32;622.53;;;11.90;99.90;;;;;;5013221;28;20128;-80
2023/06/02 05:09:41;;;;;;;1723.88;306.88;;;11.90;99.90;;;;;;5015490;28;20573;-79
2023/06/02 05:12:09;;;;;;;1670.85;319.67;;;12.00;99.90;;;;;;5030941;28;20378;-79
2023/06/02 05:14:36;;;;;;;1999.90;416.33;;;12.00;99.90;;;;;;5027273;28;20343;-86
2023/06/02 05:17:02;;;;;;;1880.60;668.13;;;12.00;99.90;;;;;;5000410;28;20402;-79
2023/06/02 05:19:28;;;;;;;1999.90;999.90;;;12.10;99.90;;;;;;5017354;28;20482;-80
2023/06/02 05:21:53;;;;;;;1715.70;628.55;;;12.10;99.90;;;;;;5033604;28;20111;-79
2023/06/02 05:24:19;;;;;;;1991.65;677.80;;;12.10;99.90;;;;;;5035625;28;20045;-80
2023/06/02 05:26:45;;;;;;;1952.70;673.75;;;12.20;99.90;;;;;;5031368;28;20056;-80
2023/06/02 05:29:10;;;;;;;1696.57;286.02;;;12.20;99.90;;;;;;5000917;28;20053;-80
2023/06/02 05:31:36;;;;;;;1986.82;379.38;;;12.30;99.90;;;;;;5032518;28;20124;-80
2023/06/02 05:34:02;;;;;;;1999.90;745.40;;;12.30;99.90;;;;;;5049154;28;20049;-79
2023/06/02 05:36:27;;;;;;;1661.70;635.58;;;12.30;99.90;;;;;;5016335;28;20482;-80
2023/06/02 05:38:53;;;;;;;1932.88;671.03;;;12.40;99.90;;;;;;5033519;28;20045;-80
2023/06/02 05:41:19;;;;;;;1999.90;452.25;;;12.40;99.90;;;;;;5033499;28;20048;-78
2023/06/02 05:43:44;;;;;;;1812.22;321.77;;;12.40;99.90;;;;;;5040415;28;20098;-78
2023/06/02 05:46:10;;;;;;;1675.10;287.85;;;12.50;99.90;;;;;;5009602;28;20053;-82
2023/06/02 05:48:36;;;;;;;1960.32;671.72;;;12.50;99.90;;;;;;5033900;28;20478;-82
2023/06/02 05:51:02;;;;;;;1198.15;219.95;;;12.50;99.90;;;;;;5013017;28;20041;-84
2023/06/02 05:53:27;;;;;;;1999.90;999.90;;;12.60;99.90;;;;;;5034824;28;20033;-81
2023/06/02 05:55:53;;;;;;;1892.22;653.95;;;12.60;99.90;;;;;;5027886;28;20560;-80
2023/06/02 05:58:19;;;;;;;1821.20;807.38;;;12.60;99.90;;;;;;5028932;28;20502;-80
2023/06/02 06:00:45;;;;;;;1696.85;609.38;;;12.70;99.90;;;;;;5033311;28;20038;-80
2023/06/02 06:03:13;;;;;;;1867.22;641.85;;;12.80;99.90;;;;;;5033304;28;20112;-80
2023/06/02 06:05:39;;;;;;;1639.82;623.42;;;12.80;99.90;;;;;;5020528;28;20056;-81
2023/06/02 06:08:05;;;;;;;1999.90;999.90;;;12.90;99.90;;;;;;5029219;28;20224;-80
2023/06/02 06:10:30;;;;;;;1937.25;465.50;;;13.00;99.90;;;;;;5007454;28;20048;-81
2023/06/02 06:12:56;;;;;;;1692.63;609.28;;;13.10;99.90;;;;;;5001823;28;20049;-80
2023/06/02 06:15:22;;;;;;;1284.43;200.60;;;13.10;99.90;;;;;;5028758;28;20052;-82
2023/06/02 06:17:52;;;;;;;1737.93;457.73;;;13.10;99.90;;;;;;4998403;28;20596;-79
2023/06/02 06:20:19;;;;;;;1275.75;200.80;;;13.10;99.90;;;;;;5034218;28;20044;-81
2023/06/02 06:22:45;;;;;;;1748.43;245.65;;;13.20;99.90;;;;;;5032834;28;20049;-79
2023/06/02 06:25:11;;;;;;;1999.90;999.90;;;13.30;99.90;;;;;;5029992;28;20129;-85
2023/06/02 06:27:37;;;;;;;1999.90;999.90;;;13.30;99.90;;;;;;5027808;28;20049;-80
2023/06/02 06:30:04;;;;;;;1768.85;785.28;;;13.50;99.90;;;;;;5030870;28;20096;-79
2023/06/02 06:32:30;;;;;;;1999.90;999.90;;;13.50;99.90;;;;;;5032316;28;20057;-79
2023/06/02 06:34:56;;;;;;;1766.00;782.58;;;13.60;99.90;;;;;;5031994;28;20560;-79
2023/06/02 06:37:22;;;;;;;1718.28;785.40;;;13.60;99.90;;;;;;5012463;28;20049;-80
2023/06/02 06:39:47;;;;;;;1666.80;597.90;;;13.70;99.90;;;;;;5032308;28;20486;-80
2023/06/02 06:42:13;;;;;;;1999.90;999.90;;;13.70;99.90;;;;;;5012259;28;20053;-80
2023/06/02 06:44:39;;;;;;;1630.38;600.45;;;13.80;99.90;;;;;;5034657;28;20060;-79
2023/06/02 06:47:05;;;;;;;1999.90;999.90;;;14.00;99.90;;;;;;5031754;28;20049;-83
2023/06/02 06:49:31;;;;;;;1999.90;999.90;;;14.10;99.90;;;;;;5032162;28;20042;-79
2023/06/02 06:51:57;;;;;;;1999.90;999.90;;;14.20;99.90;;;;;;5032398;28;20119;-80
2023/06/02 06:54:22;;;;;;;1999.90;999.90;;;14.30;99.90;;;;;;5012338;28;20065;-87
2023/06/02 06:56:48;;;;;;;1999.90;999.90;;;14.50;99.90;;;;;;5031996;28;20057;-79
2023/06/02 06:59:14;;;;;;;1999.90;999.90;;;14.60;99.90;;;;;;4998206;28;20060;-81
2023/06/02 07:01:40;;;;;;;1999.90;999.90;;;14.60;99.90;;;;;;5018824;28;20056;-80
2023/06/02 07:04:05;;;;;;;1999.90;999.90;;;14.70;99.90;;;;;;5031183;28;20045;-81
2023/06/02 07:06:34;;;;;;;1999.90;999.90;;;14.80;99.90;;;;;;5013503;28;20053;-80
2023/06/02 07:09:00;;;;;;;1999.90;999.90;;;14.90;99.90;;;;;;5032080;28;20053;-79
2023/06/02 07:11:26;;;;;;;1999.90;999.90;;;15.10;99.90;;;;;;5030579;28;20128;-81
2023/06/02 07:13:52;;;;;;;1999.90;999.90;;;15.30;99.90;;;;;;5031268;28;20132;-81
2023/06/02 07:16:17;;;;;;;1999.90;999.90;;;15.50;99.90;;;;;;5013545;28;20379;-81
2023/06/02 07:18:43;;;;;;;1999.90;999.90;;;15.60;99.90;;;;;;5013458;28;20046;-81
2023/06/02 07:21:09;;;;;;;1999.90;999.90;;;15.70;99.90;;;;;;5013967;28;20053;-83
2023/06/02 07:23:35;;;;;;;1999.90;858.33;;;15.90;99.90;;;;;;5032270;28;20053;-81
2023/06/02 07:26:00;;;;;;;1999.90;999.90;;;15.90;99.90;;;;;;5014692;28;20048;-81
2023/06/02 07:28:26;;;;;;;1999.90;999.90;;;16.00;99.90;;;;;;5022865;28;20517;-81
2023/06/02 07:30:52;;;;;;;1999.90;999.90;;;16.00;99.90;;;;;;5009702;28;20043;-81
2023/06/02 07:33:18;;;;;;;1999.90;999.90;;;16.00;99.90;;;;;;5015309;28;20140;-81
2023/06/02 07:35:44;;;;;;;1999.90;999.90;;;16.00;99.90;;;;;;5010935;28;20160;-81
2023/06/02 07:38:10;;;;;;;1999.90;999.90;;;16.10;99.90;;;;;;5031555;28;20120;-81
2023/06/02 07:40:36;;;;;;;1999.90;999.90;;;16.30;99.90;;;;;;5030044;28;20183;-80
2023/06/02 07:43:02;;;;;;;1999.90;999.90;;;16.50;99.90;;;;;;5027601;28;20053;-82
2023/06/02 07:45:28;;;;;;;1999.90;999.90;;;16.80;99.90;;;;;;5014436;28;20501;-81
2023/06/02 07:47:54;;;;;;;1999.90;999.90;;;17.10;99.90;;;;;;5031175;28;20064;-80
2023/06/02 07:50:20;;;;;;;1999.90;999.90;;;17.20;99.90;;;;;;5032645;28;20048;-81
2023/06/02 07:52:46;;;;;;;1999.90;999.90;;;17.20;99.90;;;;;;5012880;28;20049;-82
2023/06/02 07:55:12;;;;;;;1999.90;999.90;;;17.10;99.90;;;;;;5032293;28;20528;-83
2023/06/02 07:57:38;;;;;;;1999.90;999.90;;;17.00;99.90;;;;;;5005733;28;20432;-80
2023/06/02 08:00:15;;;;;;;1999.90;999.90;;;17.00;99.90;;;;;;5032888;28;20068;-80
2023/06/02 08:02:46;;;;;;;1999.90;999.90;;;17.00;99.90;;;;;;5007255;28;20045;-81
2023/06/02 08:05:16;;;;;;;1999.90;999.90;;;16.90;99.90;;;;;;4996803;28;20239;-77
2023/06/02 08:07:42;;;;;;;1999.90;999.90;;;16.90;99.90;;;;;;5031671;28;20127;-79
2023/06/02 08:10:09;;;;;;;1999.90;999.90;;;17.00;99.90;;;;;;5046283;28;20050;-79
2023/06/02 08:12:35;;;;;;;1999.90;999.90;;;17.00;99.90;;;;;;5030142;28;20045;-79
2023/06/02 08:15:02;;;;;;;1999.90;999.90;;;17.10;99.90;;;;;;5029159;28;20045;-86
2023/06/02 08:17:30;;;;;;;1999.90;999.90;;;17.30;99.90;;;;;;5012179;28;20073;-81
2023/06/02 08:19:57;;;;;;;1999.90;999.90;;;17.60;99.90;;;;;;4997631;28;20505;-78
2023/06/02 08:22:25;;;;;;;1999.90;999.90;;;18.00;99.90;;;;;;5032204;28;20057;-79
2023/06/02 08:24:52;;;;;;;1999.90;999.90;;;18.20;99.90;;;;;;5028015;28;20492;-80
2023/06/02 08:27:19;;;;;;;1999.90;999.90;;;18.50;99.90;;;;;;5030600;28;20107;-85
2023/06/02 08:29:45;;;;;;;1999.90;999.90;;;18.70;99.90;;;;;;5004813;28;20401;-81
2023/06/02 08:32:11;;;;;;;1999.90;999.90;;;19.00;99.90;;;;;;5030951;28;20045;-81
2023/06/02 08:34:37;;;;;;;1999.90;999.90;;;19.30;99.90;;;;;;5010227;28;20046;-80
2023/06/02 08:37:03;;;;;;;1999.90;999.90;;;19.60;99.90;;;;;;5036517;28;20508;-80
2023/06/02 08:39:29;;;;;;;1999.90;999.90;;;19.80;99.90;;;;;;5037709;28;20135;-81
2023/06/02 08:42:01;;;;;;;1999.90;999.90;;;20.00;99.90;;;;;;5007586;28;20120;-87
2023/06/02 08:44:30;;;;;;;1999.90;999.90;;;19.90;99.90;;;;;;5009882;28;20163;-80
2023/06/02 08:46:57;;;;;;;1999.90;999.90;;;19.90;99.90;;;;;;5007423;28;20049;-86
2023/06/02 08:49:25;;;;;;;1999.90;999.90;;;19.80;99.90;;;;;;5012332;28;20095;-81
2023/06/02 08:51:54;;;;;;;1999.90;999.90;;;20.00;99.90;;;;;;5006241;28;20045;-81
2023/06/02 08:54:20;;;;;;;1999.90;999.90;;;20.10;99.90;;;;;;5007091;28;20073;-78
2023/06/02 08:56:49;;;;;;;1999.90;999.90;;;20.20;99.90;;;;;;5007995;28;20155;-80
2023/06/02 08:59:19;;;;;;;1999.90;999.90;;;20.20;99.90;;;;;;5008808;28;20136;-85
2023/06/02 09:01:46;;;;;;;1999.90;999.90;;;20.20;99.90;;;;;;5023678;28;20056;-79
2023/06/02 09:04:12;;;;;;;1999.90;999.90;;;20.10;99.90;;;;;;5010314;28;20096;-79
2023/06/02 09:06:38;;;;;;;1999.90;999.90;;;20.20;99.90;;;;;;5023868;28;20073;-79
2023/06/02 09:09:04;;;;;;;1999.90;999.90;;;20.10;99.90;;;;;;5006352;28;20049;-80
2023/06/02 09:11:31;;;;;;;1999.90;999.90;;;20.30;99.90;;;;;;5007061;28;20041;-80
2023/06/02 09:13:58;;;;;;;1999.90;999.90;;;20.50;99.90;;;;;;5008001;28;20099;-79
2023/06/02 09:16:38;;;;;;;1999.90;999.90;;;20.80;99.90;;;;;;5023927;28;20037;-79
2023/06/02 09:19:04;;;;;;;1999.90;999.90;;;20.90;99.90;;;;;;5025715;28;20049;-80
2023/06/02 09:21:33;;;;;;;1999.90;999.90;;;21.30;99.90;;;;;;5009025;28;20049;-82
2023/06/02 09:24:02;;;;;;;1999.90;893.63;;;21.50;99.90;;;;;;5021811;28;20486;-78
2023/06/02 09:26:30;;;;;;;1999.90;999.90;;;21.70;99.90;;;;;;5009187;28;20474;-80
2023/06/02 09:29:12;;;;;;;1999.90;999.90;;;22.00;99.90;;;;;;5027456;28;20095;-80
2023/06/02 09:31:58;;;;;;;1999.90;999.90;;;22.20;99.90;;;;;;5026997;28;21033;-83
2023/06/02 09:34:38;;;;;;;1999.90;999.90;;;22.50;99.90;;;;;;5025808;28;20045;-78
2023/06/02 09:37:09;;;;;;;1999.90;938.90;;;22.70;99.90;;;;;;5030102;28;20049;-84
2023/06/02 09:39:42;;;;;;;1999.90;999.90;;;22.70;99.90;;;;;;4996639;28;20129;-79
2023/06/02 09:42:08;;;;;;;1999.90;999.90;;;22.90;99.90;;;;;;5008311;28;20041;-80
2023/06/02 09:44:35;;;;;;;1999.90;999.90;;;23.20;99.90;;;;;;5012968;28;20469;-80
2023/06/02 09:47:02;;;;;;;1999.90;999.90;;;23.30;99.90;;;;;;5029664;28;20099;-80
2023/06/02 09:49:40;;;;;;;1999.90;999.90;;;23.30;99.90;;;;;;5011998;28;20061;-86
2023/06/02 09:52:15;;;;;;;;;;;23.30;99.90;;;;;;5011604;28;20068;-81
2023/06/02 09:54:46;;;;;;;1999.90;999.90;;;23.40;99.90;;;;;;5012927;28;19971;-80
2023/06/02 09:57:13;;;;;;;1999.90;999.90;;;23.40;99.90;;;;;;5028143;28;20139;-79
2023/06/02 09:59:44;;;;;;;1478.00;359.25;;;23.00;99.90;;;;;;5010957;28;20115;-81
2023/06/02 10:02:10;;;;;;;1999.90;999.90;;;23.00;99.90;;;;;;4999306;28;20127;-80
2023/06/02 10:04:37;;;;;;;1999.90;999.90;;;23.10;99.90;;;;;;5033411;28;20041;-80
2023/06/02 10:07:28;;;;;;;1999.90;999.90;;;23.40;99.90;;;;;;5033247;28;20053;-79
2023/06/02 10:10:13;;;;;;;1999.90;999.90;;;23.70;99.90;;;;;;5026401;28;20148;-81
2023/06/02 10:13:14;;;;;;;1999.90;999.90;;;24.20;99.90;;;;;;5031811;28;20080;-80
2023/06/02 10:15:49;;;;;;;1999.90;999.90;;;24.50;99.90;;;;;;5014393;28;20053;-79
2023/06/02 10:18:42;;;;;;;1999.90;999.90;;;24.80;99.90;;;;;;5021917;28;20052;-80
2023/06/02 10:21:55;;;;;;;1999.90;999.90;;;25.30;99.90;;;;;;4998365;28;20512;-83
2023/06/02 10:24:39;;;;;;;1999.90;999.90;;;25.80;99.90;;;;;;5033416;28;20053;-78
2023/06/02 10:27:36;;;;;;;1999.90;999.90;;;26.00;99.90;;;;;;5032913;28;20049;-78
2023/06/02 10:30:02;;;;;;;1999.90;655.13;;;26.40;99.90;;;;;;5029867;28;20045;-79
2023/06/02 10:32:47;;;;;;;1999.90;999.90;;;26.60;99.90;;;;;;5013749;28;20133;-79
2023/06/02 10:35:14;;;;;;;1999.90;999.90;;;26.10;99.90;;;;;;5012350;28;20145;-80
2023/06/02 10:37:40;;;;;;;1999.90;999.90;;;25.60;99.90;;;;;;5033150;28;20052;-82
2023/06/02 10:40:10;;;;;;;1999.90;999.90;;;24.90;99.90;;;;;;5018079;28;20300;-78
2023/06/02 10:42:37;;;;;;;1999.90;999.90;;;24.30;99.90;;;;;;5027213;28;20056;-79
2023/06/02 10:45:18;;;;;;;1999.90;999.90;;;24.40;99.90;;;;;;5026898;28;20424;-78
2023/06/02 10:47:46;;;;;;;1999.90;999.90;;;24.20;99.90;;;;;;5028491;28;20053;-78
2023/06/02 10:50:14;;;;;;;1999.90;999.90;;;24.00;99.90;;;;;;5030836;28;20049;-85
2023/06/02 10:52:58;;;;;;;1999.90;999.90;;;24.60;99.90;;;;;;5031008;28;20160;-81
2023/06/02 10:55:28;;;;;;;1999.90;999.90;;;25.80;99.90;;;;;;5028701;28;20053;-79
2023/06/02 10:58:05;;;;;;;1999.90;999.90;;;26.50;99.90;;;;;;5032883;28;20053;-79
2023/06/02 11:00:39;;;;;;;1999.90;999.90;;;27.40;99.90;;;;;;5046503;28;20383;-79
2023/06/02 11:03:22;;;;;;;1727.72;783.50;;;28.30;99.90;;;;;;5032790;28;20128;-79
2023/06/02 11:05:54;;;;;;;1999.90;999.90;;;29.30;99.90;;;;;;5032687;28;20045;-79
2023/06/02 11:08:22;;;;;;;1999.90;999.90;;;29.70;99.90;;;;;;5031566;28;20118;-81
2023/06/02 11:10:56;;;;;;;1999.90;999.90;;;29.90;99.90;;;;;;5028580;28;20080;-81
2023/06/02 11:13:23;;;;;;;1999.90;999.90;;;30.40;99.90;;;;;;5031239;28;20046;-79
2023/06/02 11:15:52;;;;;;;;;;;30.80;99.90;;;;;;5030263;28;20433;-79
2023/06/02 11:18:25;;;;;;;1999.90;999.90;;;30.90;99.90;;;;;;5028516;28;19925;-80
2023/06/02 11:20:53;;;;;;;1999.90;999.90;;;31.30;99.90;;;;;;5027146;28;20045;-86
2023/06/02 11:23:20;;;;;;;1999.90;999.90;;;31.50;99.90;;;;;;5030362;28;20447;-79
2023/06/02 11:26:02;;;;;;;1999.90;999.90;;;31.80;99.90;;;;;;5029585;28;20064;-77
2023/06/02 11:28:29;;;;;;;1999.90;999.90;;;32.30;99.90;;;;;;5030598;28;20042;-77
2023/06/02 11:31:08;;;;;;;1999.90;999.90;;;32.50;99.90;;;;;;5029766;28;20053;-79
2023/06/02 11:33:38;;;;;;;1999.90;999.90;;;32.80;99.90;;;;;;5015176;28;20060;-80
2023/06/02 11:36:06;;;;;;;1999.90;999.90;;;33.20;99.90;;;;;;5031416;28;20129;-79
2023/06/02 11:38:32;;;;;;;1999.90;999.90;;;33.40;99.90;;;;;;5013771;28;20045;-79
2023/06/02 11:41:15;;;;;;;1999.90;999.90;;;33.80;99.90;;;;;;5028315;28;20044;-79
2023/06/02 11:43:43;;;;;;;1999.90;999.90;;;34.20;99.90;;;;;;5035099;28;20049;-79
2023/06/02 11:46:11;;;;;;;1999.90;999.90;;;34.40;99.90;;;;;;5028620;28;20449;-80
2023/06/02 11:48:38;;;;;;;1999.90;999.90;;;34.30;99.90;;;;;;5008620;28;20041;-80
2023/06/02 11:51:15;;;;;;;1999.90;999.90;;;34.60;99.90;;;;;;5029828;28;20068;-79
2023/06/02 11:53:45;;;;;;;1999.90;999.90;;;34.90;99.90;;;;;;5029495;28;20056;-78
2023/06/02 11:56:15;;;;;;;1999.90;999.90;;;35.00;99.90;;;;;;5031338;28;20052;-78
2023/06/02 11:58:42;;;;;;;1999.90;999.90;;;35.00;99.90;;;;;;5011673;28;20056;-79
2023/06/02 12:01:14;;;;;;;1999.90;999.90;;;35.10;99.90;;;;;;5025244;28;20045;-81
2023/06/02 12:03:51;;;;;;;1999.90;999.90;;;35.10;99.90;;;;;;5026659;28;20049;-80
2023/06/02 12:06:17;;;;;;;;;;;34.90;99.90;;;;;;5028785;28;20041;-86